Time;durP1;ratioP1;P1;durP2;ratioP2;P2;SDS_P1;SDS_P2;PMS_P1;PMS_P2;Temp;Humidity;BMP_temperature;BMP_pressure;BME280_temperature;BME280_humidity;BME280_pressure;Samples;Min_cycle;Max_cycle;Signal;HPM_P1;HPM_P2
2021/03/14 00:01:55;;;;;;;4.40;1.10;;;4.90;92.40;;;;;;5052568;28;20211;-79
2021/03/14 00:04:21;;;;;;;2.35;0.80;;;4.80;92.10;;;;;;5036181;28;20226;-78
2021/03/14 00:06:48;;;;;;;2.47;0.90;;;4.70;92.00;;;;;;5032694;28;20219;-79
2021/03/14 00:09:14;;;;;;;1.70;0.85;;;4.60;92.10;;;;;;5032599;28;20199;-78
2021/03/14 00:11:41;;;;;;;1.23;1.10;;;4.60;92.10;;;;;;5030709;28;20211;-78
2021/03/14 00:14:08;;;;;;;0.82;0.70;;;4.60;92.50;;;;;;5030377;28;20227;-78
2021/03/14 00:16:34;;;;;;;1.42;0.60;;;4.50;92.60;;;;;;5022217;28;20224;-79
2021/03/14 00:19:01;;;;;;;1.80;0.50;;;4.50;93.20;;;;;;5022555;28;20207;-79
2021/03/14 00:21:27;;;;;;;0.98;0.55;;;4.40;93.10;;;;;;5028041;28;20199;-79
2021/03/14 00:23:54;;;;;;;0.60;0.60;;;4.30;93.10;;;;;;5035369;28;20211;-79
2021/03/14 00:26:20;;;;;;;0.95;0.68;;;4.30;93.10;;;;;;5033788;28;20227;-79
2021/03/14 00:28:47;;;;;;;1.13;0.50;;;4.30;93.50;;;;;;5031824;28;20218;-78
2021/03/14 00:31:14;;;;;;;0.55;0.52;;;4.30;94.10;;;;;;5037151;28;20202;-79
2021/03/14 00:33:40;;;;;;;0.65;0.60;;;4.30;94.30;;;;;;5052116;28;20218;-79
2021/03/14 00:36:08;;;;;;;1.70;0.73;;;4.20;94.30;;;;;;5032920;28;20680;-78
2021/03/14 00:38:34;;;;;;;1.08;0.50;;;4.30;94.50;;;;;;5015620;28;20323;-78
2021/03/14 00:41:01;;;;;;;1.17;0.93;;;4.20;94.50;;;;;;5022965;28;20238;-78
2021/03/14 00:43:27;;;;;;;0.60;0.50;;;4.20;94.40;;;;;;5034529;28;20334;-79
2021/03/14 00:45:54;;;;;;;0.95;0.60;;;4.20;94.50;;;;;;5033394;28;20230;-79
2021/03/14 00:48:21;;;;;;;0.88;0.60;;;4.20;94.80;;;;;;5033731;28;20214;-79
2021/03/14 00:50:47;;;;;;;2.15;0.75;;;4.20;94.90;;;;;;5033703;28;20207;-80
2021/03/14 00:53:14;;;;;;;2.97;0.70;;;4.10;94.80;;;;;;5034032;28;20230;-77
2021/03/14 00:55:40;;;;;;;1.52;0.75;;;4.10;94.60;;;;;;5034402;28;20721;-79
2021/03/14 00:58:07;;;;;;;2.25;0.93;;;4.10;94.70;;;;;;5034222;28;20219;-79
2021/03/14 01:00:33;;;;;;;0.90;0.50;;;4.20;95.10;;;;;;5032973;28;20563;-78
2021/03/14 01:03:01;;;;;;;1.02;0.70;;;4.20;94.90;;;;;;5029478;28;20228;-78
2021/03/14 01:05:27;;;;;;;2.95;0.73;;;4.20;94.90;;;;;;5032781;28;20211;-78
2021/03/14 01:07:54;;;;;;;0.93;0.65;;;4.10;94.80;;;;;;5033854;28;20238;-78
2021/03/14 01:10:20;;;;;;;0.88;0.73;;;4.10;94.70;;;;;;5021262;28;20212;-79
2021/03/14 01:12:47;;;;;;;1.10;0.75;;;4.20;94.90;;;;;;5015416;28;20587;-80
2021/03/14 01:15:15;;;;;;;1.40;0.90;;;4.20;94.80;;;;;;5014209;28;20699;-78
2021/03/14 01:17:42;;;;;;;1.48;0.98;;;4.20;94.20;;;;;;5017068;28;20288;-78
2021/03/14 01:20:14;;;;;;;1.70;1.05;;;4.20;93.90;;;;;;5044109;28;20203;-78
2021/03/14 01:22:40;;;;;;;3.53;0.95;;;4.10;93.50;;;;;;5048033;28;20222;-79
2021/03/14 01:25:09;;;;;;;1.85;0.95;;;4.20;93.10;;;;;;5052514;28;20199;-78
2021/03/14 01:27:35;;;;;;;1.23;0.80;;;4.20;93.10;;;;;;5042755;28;20214;-78
2021/03/14 01:30:03;;;;;;;0.80;0.80;;;4.20;93.10;;;;;;5033408;28;20231;-78
2021/03/14 01:32:30;;;;;;;1.75;0.85;;;4.20;92.70;;;;;;5026520;28;20200;-78
2021/03/14 01:34:56;;;;;;;1.65;1.20;;;4.10;92.50;;;;;;5013674;28;20239;-78
2021/03/14 01:37:24;;;;;;;0.60;0.60;;;4.10;92.50;;;;;;5014907;28;20315;-77
2021/03/14 01:39:50;;;;;;;1.10;0.50;;;4.10;92.60;;;;;;5013456;28;20302;-78
2021/03/14 01:42:24;;;;;;;3.42;0.93;;;4.10;92.30;;;;;;5016808;28;20258;-79
2021/03/14 01:44:51;;;;;;;0.75;0.75;;;4.10;92.30;;;;;;5033629;28;20215;-78
2021/03/14 01:47:17;;;;;;;1.30;0.90;;;4.10;93.00;;;;;;5032470;28;20223;-79
2021/03/14 01:49:44;;;;;;;2.72;1.33;;;4.20;92.20;;;;;;5036474;28;20290;-79
2021/03/14 01:52:10;;;;;;;1.30;1.20;;;4.10;92.00;;;;;;5037418;28;20227;-79
2021/03/14 01:54:38;;;;;;;2.25;1.10;;;4.10;92.10;;;;;;5041809;28;20242;-77
2021/03/14 01:57:05;;;;;;;1.80;1.35;;;4.10;91.90;;;;;;5050104;28;20277;-78
2021/03/14 01:59:31;;;;;;;1.30;1.20;;;4.10;91.80;;;;;;5030606;28;20200;-79
2021/03/14 02:01:58;;;;;;;1.55;1.00;;;4.00;91.80;;;;;;5031141;28;20206;-79
2021/03/14 02:04:24;;;;;;;1.92;1.20;;;4.10;91.90;;;;;;5049142;28;20218;-77
2021/03/14 02:06:50;;;;;;;1.20;1.10;;;4.10;92.20;;;;;;5050813;28;20223;-79
2021/03/14 02:09:17;;;;;;;1.73;1.50;;;4.00;92.30;;;;;;5049596;28;20211;-79
2021/03/14 02:11:46;;;;;;;0.88;0.88;;;4.00;92.40;;;;;;5055452;28;20206;-78
2021/03/14 02:14:15;;;;;;;3.50;1.50;;;4.00;92.80;;;;;;5060330;28;20199;-77
2021/03/14 02:16:44;;;;;;;2.95;1.10;;;4.00;92.70;;;;;;5060704;28;20223;-77
2021/03/14 02:19:16;;;;;;;3.20;1.30;;;4.00;92.80;;;;;;5045847;28;20188;-78
2021/03/14 02:21:43;;;;;;;2.55;1.45;;;3.90;92.90;;;;;;5040552;28;20192;-79
2021/03/14 02:24:16;;;;;;;3.03;1.58;;;4.00;93.00;;;;;;5039273;28;20207;-78
2021/03/14 02:26:53;;;;;;;2.00;1.33;;;4.00;93.40;;;;;;5025650;28;20228;-78
2021/03/14 02:29:21;;;;;;;2.25;1.58;;;3.90;93.40;;;;;;5018820;28;20199;-78
2021/03/14 02:31:50;;;;;;;2.00;1.80;;;4.00;93.80;;;;;;5018584;28;20238;-77
2021/03/14 02:34:21;;;;;;;1.60;1.50;;;4.00;93.70;;;;;;5020905;28;20243;-79
2021/03/14 02:36:49;;;;;;;2.03;1.52;;;4.00;93.70;;;;;;5018602;28;20235;-79
2021/03/14 02:39:19;;;;;;;2.40;1.92;;;3.90;93.60;;;;;;5018063;28;20573;-79
2021/03/14 02:41:47;;;;;;;1.95;1.75;;;4.00;93.80;;;;;;5038123;28;20218;-78
2021/03/14 02:44:16;;;;;;;4.35;1.58;;;3.90;93.80;;;;;;5055501;28;20218;-79
2021/03/14 02:46:45;;;;;;;4.28;1.50;;;3.90;94.40;;;;;;5035803;28;20216;-80
2021/03/14 02:49:13;;;;;;;3.90;1.83;;;3.90;94.20;;;;;;5017886;28;20223;-79
2021/03/14 02:51:40;;;;;;;3.38;1.80;;;3.90;94.50;;;;;;5024825;28;20736;-79
2021/03/14 02:54:07;;;;;;;3.05;2.03;;;3.90;94.80;;;;;;5037425;28;20231;-78
2021/03/14 02:56:34;;;;;;;2.80;1.70;;;3.90;95.00;;;;;;5038491;28;20226;-79
2021/03/14 02:59:02;;;;;;;1.83;1.73;;;4.00;95.40;;;;;;5039391;28;20223;-79
2021/03/14 03:01:30;;;;;;;1.98;1.85;;;4.10;95.30;;;;;;5039502;28;20204;-79
2021/03/14 03:03:58;;;;;;;4.22;2.13;;;4.00;94.90;;;;;;5039005;28;20446;-79
2021/03/14 03:06:25;;;;;;;3.08;1.83;;;4.00;95.10;;;;;;5036694;28;20230;-79
2021/03/14 03:08:52;;;;;;;3.22;2.55;;;4.00;95.00;;;;;;5036453;28;20239;-78
2021/03/14 03:11:19;;;;;;;3.17;2.20;;;4.10;95.00;;;;;;5032906;28;20204;-78
2021/03/14 03:13:47;;;;;;;1.95;1.75;;;4.10;95.10;;;;;;5016032;28;20219;-77
2021/03/14 03:16:16;;;;;;;6.50;2.22;;;4.00;94.90;;;;;;5023348;28;20231;-78
2021/03/14 03:18:45;;;;;;;3.00;2.10;;;4.00;95.00;;;;;;5026771;28;20227;-79
2021/03/14 03:21:12;;;;;;;3.38;2.20;;;4.00;95.00;;;;;;5021417;28;20207;-79
2021/03/14 03:23:39;;;;;;;2.53;2.33;;;4.00;95.10;;;;;;5015167;28;20231;-77
2021/03/14 03:26:06;;;;;;;2.13;1.90;;;4.00;95.20;;;;;;5034967;28;20718;-78
2021/03/14 03:28:34;;;;;;;2.25;1.92;;;4.10;95.40;;;;;;5035572;28;20230;-78
2021/03/14 03:31:00;;;;;;;2.85;2.40;;;4.00;95.20;;;;;;5036414;28;20295;-78
2021/03/14 03:33:27;;;;;;;2.47;1.90;;;4.00;95.00;;;;;;5048090;28;20215;-79
2021/03/14 03:35:55;;;;;;;6.97;2.58;;;4.00;95.40;;;;;;5054206;28;20226;-78
2021/03/14 03:38:21;;;;;;;2.40;2.08;;;4.00;95.30;;;;;;5047316;28;20231;-79
2021/03/14 03:40:48;;;;;;;2.88;2.10;;;4.10;95.00;;;;;;5041649;28;20227;-78
2021/03/14 03:43:20;;;;;;;3.90;2.22;;;4.00;95.00;;;;;;5037696;28;20294;-78
2021/03/14 03:45:49;;;;;;;3.00;2.42;;;4.10;94.90;;;;;;5046995;28;20266;-79
2021/03/14 03:48:21;;;;;;;4.72;2.20;;;4.10;94.80;;;;;;5049791;28;20211;-79
2021/03/14 03:50:48;;;;;;;2.42;1.98;;;4.10;94.80;;;;;;5043357;28;20647;-78
2021/03/14 03:53:19;;;;;;;4.30;2.15;;;4.10;94.70;;;;;;5039125;28;20200;-79
2021/03/14 03:55:46;;;;;;;2.20;2.00;;;4.20;94.30;;;;;;5030239;28;20246;-78
2021/03/14 03:58:13;;;;;;;3.58;1.90;;;4.20;93.80;;;;;;5035318;28;20409;-77
2021/03/14 04:00:41;;;;;;;2.50;2.30;;;4.20;93.10;;;;;;5039278;28;20218;-78
2021/03/14 04:03:07;;;;;;;1.85;1.70;;;4.20;93.10;;;;;;5038083;28;20254;-78
2021/03/14 04:05:34;;;;;;;3.95;2.10;;;4.20;93.10;;;;;;5037654;28;20262;-79
2021/03/14 04:08:01;;;;;;;1.73;1.60;;;4.20;92.50;;;;;;5037854;28;20258;-78
2021/03/14 04:10:29;;;;;;;4.00;1.73;;;4.30;92.80;;;;;;5037640;28;20857;-77
2021/03/14 04:12:56;;;;;;;5.00;1.80;;;4.30;92.00;;;;;;5034093;28;20212;-78
2021/03/14 04:15:30;;;;;;;1.75;1.45;;;4.20;91.50;;;;;;5040726;28;20225;-78
2021/03/14 04:17:57;;;;;;;1.55;1.10;;;4.30;91.80;;;;;;5041516;28;20231;-78
2021/03/14 04:20:29;;;;;;;2.92;2.10;;;4.30;91.30;;;;;;5034522;28;20246;-78
2021/03/14 04:22:57;;;;;;;3.42;1.33;;;4.30;91.20;;;;;;5035927;28;20199;-77
2021/03/14 04:25:25;;;;;;;2.28;1.30;;;4.30;91.20;;;;;;5048609;28;20233;-78
2021/03/14 04:27:55;;;;;;;3.38;1.75;;;4.30;90.70;;;;;;5048061;28;20286;-78
2021/03/14 04:30:24;;;;;;;2.13;1.05;;;4.20;90.30;;;;;;5048216;28;20211;-79
2021/03/14 04:32:52;;;;;;;5.18;0.70;;;4.20;90.60;;;;;;5045598;28;20233;-78
2021/03/14 04:35:19;;;;;;;2.95;1.00;;;4.20;90.40;;;;;;5031718;28;20246;-77
2021/03/14 04:37:46;;;;;;;2.08;0.95;;;4.20;90.00;;;;;;5044179;28;20215;-77
2021/03/14 04:40:14;;;;;;;0.85;0.85;;;4.20;89.00;;;;;;5052507;28;20258;-78
2021/03/14 04:42:43;;;;;;;1.17;0.77;;;4.20;89.00;;;;;;5052708;28;20215;-78
2021/03/14 04:45:12;;;;;;;0.75;0.63;;;4.20;89.00;;;;;;5051988;28;20235;-78
2021/03/14 04:47:41;;;;;;;1.60;0.93;;;4.20;89.00;;;;;;5053024;28;20203;-78
2021/03/14 04:50:09;;;;;;;1.35;0.75;;;4.20;87.40;;;;;;5052651;28;20242;-77
2021/03/14 04:52:36;;;;;;;2.05;0.82;;;4.20;87.60;;;;;;5053075;28;20676;-77
2021/03/14 04:55:08;;;;;;;2.47;0.85;;;4.20;87.60;;;;;;5053400;28;20207;-78
2021/03/14 04:57:38;;;;;;;1.85;0.93;;;4.20;86.70;;;;;;5044505;28;20218;-78
2021/03/14 05:00:07;;;;;;;3.83;1.08;;;4.20;87.00;;;;;;5034855;28;20203;-78
2021/03/14 05:02:35;;;;;;;2.67;1.02;;;4.20;87.50;;;;;;5034499;28;20258;-77
2021/03/14 05:05:03;;;;;;;1.70;0.77;;;4.20;87.20;;;;;;5034716;28;20211;-77
2021/03/14 05:07:31;;;;;;;2.22;1.10;;;4.20;87.00;;;;;;5043498;28;20238;-78
2021/03/14 05:09:58;;;;;;;1.08;0.98;;;4.20;86.80;;;;;;5052161;28;20210;-78
2021/03/14 05:12:26;;;;;;;1.20;1.10;;;4.20;86.90;;;;;;5050765;28;20474;-78
2021/03/14 05:14:53;;;;;;;1.15;1.05;;;4.20;87.20;;;;;;5049414;28;20207;-78
2021/03/14 05:17:20;;;;;;;2.25;1.30;;;4.20;87.00;;;;;;5043584;28;20241;-77
2021/03/14 05:19:47;;;;;;;1.40;1.30;;;4.20;87.60;;;;;;5018609;28;20204;-78
2021/03/14 05:22:14;;;;;;;1.42;1.30;;;4.20;88.10;;;;;;5015482;28;20696;-77
2021/03/14 05:24:43;;;;;;;4.22;1.65;;;4.10;88.60;;;;;;5015111;28;20254;-78
2021/03/14 05:27:11;;;;;;;3.22;1.42;;;4.10;88.90;;;;;;5014097;28;20274;-78
2021/03/14 05:29:38;;;;;;;4.97;1.98;;;4.10;88.90;;;;;;5031207;28;20199;-78
2021/03/14 05:32:05;;;;;;;3.25;1.50;;;4.20;89.00;;;;;;5040821;28;20234;-78
2021/03/14 05:34:31;;;;;;;3.72;1.60;;;4.10;88.90;;;;;;5045085;28;20241;-79
2021/03/14 05:36:59;;;;;;;1.73;1.63;;;4.10;88.90;;;;;;5045351;28;20230;-79
2021/03/14 05:39:25;;;;;;;2.15;1.52;;;4.20;89.60;;;;;;5030280;28;20254;-78
2021/03/14 05:41:53;;;;;;;3.05;1.50;;;4.10;89.80;;;;;;5027418;28;20211;-78
2021/03/14 05:44:20;;;;;;;2.78;2.00;;;4.10;89.40;;;;;;5030128;28;20703;-78
2021/03/14 05:46:47;;;;;;;3.50;1.80;;;4.10;89.40;;;;;;5031929;28;20246;-79
2021/03/14 05:49:15;;;;;;;1.40;1.30;;;4.20;89.00;;;;;;5033756;28;20203;-78
2021/03/14 05:51:43;;;;;;;6.68;2.00;;;4.20;89.00;;;;;;5033627;28;20195;-78
2021/03/14 05:54:12;;;;;;;2.25;1.70;;;4.20;88.30;;;;;;5042312;28;20199;-78
2021/03/14 05:56:43;;;;;;;2.60;2.40;;;4.20;87.50;;;;;;5053572;28;20258;-79
2021/03/14 05:59:12;;;;;;;2.15;1.75;;;4.30;86.90;;;;;;5051666;28;20211;-78
2021/03/14 06:01:38;;;;;;;3.90;2.13;;;4.20;86.00;;;;;;5051791;28;20207;-78
2021/03/14 06:04:09;;;;;;;2.55;2.10;;;4.20;84.90;;;;;;5052531;28;20218;-78
2021/03/14 06:06:37;;;;;;;2.60;2.10;;;4.20;84.30;;;;;;5048352;28;20316;-78
2021/03/14 06:09:04;;;;;;;4.22;2.05;;;4.30;84.60;;;;;;5034139;28;20200;-78
2021/03/14 06:11:31;;;;;;;2.33;1.70;;;4.30;83.70;;;;;;5029226;28;20219;-77
2021/03/14 06:13:59;;;;;;;4.28;2.00;;;4.30;83.10;;;;;;5045261;28;20219;-78
2021/03/14 06:16:26;;;;;;;2.10;1.75;;;4.20;82.60;;;;;;5053376;28;20227;-78
2021/03/14 06:18:53;;;;;;;3.28;2.30;;;4.20;80.80;;;;;;5039699;28;20235;-78
2021/03/14 06:21:22;;;;;;;2.75;1.88;;;4.20;80.70;;;;;;5046118;28;20199;-78
2021/03/14 06:23:57;;;;;;;5.53;2.38;;;4.20;80.70;;;;;;5042577;28;20227;-77
2021/03/14 06:26:36;;;;;;;3.20;1.70;;;4.20;80.70;;;;;;5049119;23;20230;-79
2021/03/14 06:29:22;;;;;;;5.20;1.80;;;4.20;79.70;;;;;;5057105;28;20202;-79
2021/03/14 06:31:50;;;;;;;5.20;2.70;;;4.30;79.10;;;;;;5068135;28;20187;-79
2021/03/14 06:34:32;;;;;;;3.47;1.90;;;4.40;78.90;;;;;;5072219;28;20294;-80
2021/03/14 06:37:00;;;;;;;1.90;1.50;;;4.40;77.50;;;;;;5065498;28;20248;-80
2021/03/14 06:39:28;;;;;;;1.95;1.83;;;4.40;76.70;;;;;;5071074;28;20229;-79
2021/03/14 06:41:56;;;;;;;6.95;2.08;;;4.50;75.40;;;;;;5061830;28;20233;-81
2021/03/14 06:44:25;;;;;;;2.97;1.42;;;4.40;74.40;;;;;;5052885;28;20210;-81
2021/03/14 06:46:52;;;;;;;4.25;1.52;;;4.40;73.80;;;;;;5047408;28;20233;-79
2021/03/14 06:49:19;;;;;;;3.28;1.40;;;4.40;72.50;;;;;;5036549;28;20671;-79
2021/03/14 06:51:47;;;;;;;2.50;1.88;;;4.40;72.50;;;;;;5043650;28;20209;-79
2021/03/14 06:54:20;;;;;;;6.15;1.90;;;4.40;72.50;;;;;;5057118;28;20320;-80
2021/03/14 06:57:12;;;;;;;3.95;2.15;;;4.40;74.20;;;;;;5048754;28;20751;-80
2021/03/14 06:59:43;;;;;;;2.13;1.58;;;4.40;76.10;;;;;;5036334;28;20235;-80
2021/03/14 07:02:11;;;;;;;2.92;1.83;;;4.30;77.50;;;;;;5044988;28;20642;-80
2021/03/14 07:04:46;;;;;;;3.00;1.95;;;4.20;78.90;;;;;;5056675;28;20235;-82
2021/03/14 07:07:16;;;;;;;5.00;1.80;;;4.20;79.90;;;;;;5058223;28;20222;-81
2021/03/14 07:09:43;;;;;;;4.13;1.40;;;4.20;80.70;;;;;;5059706;28;20245;-80
2021/03/14 07:12:22;;;;;;;2.30;1.65;;;4.30;80.10;;;;;;5050032;28;20203;-81
2021/03/14 07:14:49;;;;;;;5.90;2.00;;;4.30;80.80;;;;;;5039028;28;20198;-80
2021/03/14 07:17:33;;;;;;;3.35;1.70;;;4.40;79.40;;;;;;5048188;28;20226;-80
2021/03/14 07:20:01;;;;;;;6.07;2.35;;;4.50;79.30;;;;;;5062926;28;20252;-80
2021/03/14 07:22:28;;;;;;;5.65;1.90;;;4.60;77.30;;;;;;5047590;28;20249;-78
2021/03/14 07:24:55;;;;;;;3.05;2.47;;;4.70;77.00;;;;;;5035747;28;20242;-79
2021/03/14 07:27:24;;;;;;;4.82;2.53;;;4.70;76.30;;;;;;5038889;28;20239;-78
2021/03/14 07:29:52;;;;;;;3.53;1.88;;;4.70;75.40;;;;;;5053608;28;20214;-80
2021/03/14 07:32:19;;;;;;;6.22;2.72;;;4.80;75.00;;;;;;5062777;28;20182;-80
2021/03/14 07:34:46;;;;;;;4.50;1.60;;;4.80;74.20;;;;;;5074133;28;20270;-80
2021/03/14 07:37:12;;;;;;;4.45;2.05;;;4.90;74.60;;;;;;5075170;28;20226;-79
2021/03/14 07:39:39;;;;;;;5.05;2.33;;;5.00;75.10;;;;;;5075128;28;20183;-80
2021/03/14 07:42:06;;;;;;;3.10;2.05;;;5.00;76.70;;;;;;5072799;28;20250;-79
2021/03/14 07:44:34;;;;;;;2.90;1.90;;;5.00;76.70;;;;;;5071558;28;20227;-79
2021/03/14 07:47:02;;;;;;;3.05;1.90;;;5.10;76.60;;;;;;5059964;28;20210;-79
2021/03/14 07:49:29;;;;;;;7.35;2.10;;;5.10;75.70;;;;;;5077104;28;20218;-80
2021/03/14 07:51:58;;;;;;;3.80;1.83;;;5.30;73.30;;;;;;5074533;28;20214;-80
2021/03/14 07:54:28;;;;;;;6.20;2.00;;;5.40;72.10;;;;;;5054420;28;20214;-78
2021/03/14 07:56:58;;;;;;;5.53;1.90;;;5.60;70.60;;;;;;5046391;28;20566;-80
2021/03/14 07:59:26;;;;;;;1.65;1.20;;;5.80;68.20;;;;;;5039488;28;20191;-81
2021/03/14 08:01:54;;;;;;;6.95;2.03;;;6.00;67.00;;;;;;5039796;28;20373;-80
2021/03/14 08:04:31;;;;;;;6.28;2.83;;;6.10;64.80;;;;;;5041652;28;20214;-78
2021/03/14 08:06:57;;;;;;;2.33;1.55;;;6.30;63.60;;;;;;5050798;28;20234;-78
2021/03/14 08:09:44;;;;;;;2.47;1.48;;;6.30;61.60;;;;;;5053114;28;20199;-79
2021/03/14 08:12:18;;;;;;;2.90;1.52;;;6.30;61.30;;;;;;5052541;28;20195;-81
2021/03/14 08:14:45;;;;;;;2.95;1.15;;;6.20;61.30;;;;;;5046337;28;20191;-80
2021/03/14 08:17:20;;;;;;;4.95;1.92;;;6.10;61.80;;;;;;5044221;28;20234;-81
2021/03/14 08:19:48;;;;;;;2.78;1.50;;;6.00;63.20;;;;;;5046271;28;20237;-79
2021/03/14 08:22:49;;;;;;;1.60;1.48;;;6.10;63.40;;;;;;5051157;28;20211;-81
2021/03/14 08:25:21;;;;;;;6.25;1.50;;;6.10;65.20;;;;;;5066828;28;20299;-80
2021/03/14 08:27:49;;;;;;;2.97;1.20;;;6.10;66.30;;;;;;5063191;28;20709;-80
2021/03/14 08:30:44;;;;;;;4.90;2.00;;;6.10;66.30;;;;;;5042141;28;20219;-80
2021/03/14 08:33:33;;;;;;;7.07;1.45;;;6.20;65.30;;;;;;5050429;28;20206;-81
2021/03/14 08:36:02;;;;;;;6.85;2.22;;;6.50;64.40;;;;;;5065783;28;20570;-79
2021/03/14 08:38:42;;;;;;;5.30;1.55;;;6.40;65.50;;;;;;5050302;28;20215;-81
2021/03/14 08:41:18;;;;;;;3.13;1.40;;;6.20;65.40;;;;;;5058071;28;20335;-81
2021/03/14 08:43:46;;;;;;;5.53;1.63;;;6.00;62.50;;;;;;5069531;28;20217;-81
2021/03/14 08:46:13;;;;;;;3.20;1.58;;;6.00;63.10;;;;;;5073447;28;20244;-80
2021/03/14 08:48:43;;;;;;;2.60;1.70;;;5.90;62.80;;;;;;5057427;28;20207;-81
2021/03/14 08:51:11;;;;;;;1.60;1.50;;;5.90;63.20;;;;;;5056434;28;20199;-83
2021/03/14 08:53:38;;;;;;;3.95;1.73;;;5.90;63.30;;;;;;5056403;28;20199;-80
2021/03/14 08:56:06;;;;;;;2.97;1.38;;;5.90;62.80;;;;;;5051925;28;20218;-81
2021/03/14 08:58:34;;;;;;;5.15;2.20;;;6.00;63.10;;;;;;5051336;28;20227;-84
2021/03/14 09:01:05;;;;;;;3.00;1.95;;;6.20;62.50;;;;;;5053984;28;20203;-80
2021/03/14 09:03:32;;;;;;;1.85;1.40;;;6.20;61.40;;;;;;5053902;28;20229;-79
2021/03/14 09:06:26;;;;;;;5.05;1.85;;;6.40;61.10;;;;;;5055215;28;20207;-80
2021/03/14 09:08:58;;;;;;;8.60;1.70;;;6.50;61.10;;;;;;5049382;28;20207;-79
2021/03/14 09:11:45;;;;;;;3.72;1.60;;;6.50;61.10;;;;;;5051910;28;20240;-81
2021/03/14 09:14:32;;;;;;;7.97;1.60;;;6.50;60.50;;;;;;5056862;28;20194;-81
2021/03/14 09:17:01;;;;;;;1.60;1.25;;;6.40;60.20;;;;;;5057256;28;20749;-81
2021/03/14 09:19:31;;;;;;;3.75;1.48;;;6.40;59.80;;;;;;5056422;28;20654;-82
2021/03/14 09:22:00;;;;;;;2.92;1.42;;;6.40;60.90;;;;;;5053720;28;20214;-79
2021/03/14 09:24:31;;;;;;;3.55;1.50;;;6.40;61.10;;;;;;5072594;28;20198;-80
2021/03/14 09:27:00;;;;;;;1.45;1.10;;;6.60;60.70;;;;;;5069935;28;20233;-81
2021/03/14 09:29:38;;;;;;;1.95;1.13;;;6.90;60.70;;;;;;5072637;28;20213;-80
2021/03/14 09:32:16;;;;;;;3.85;1.17;;;7.00;61.10;;;;;;5058922;28;20206;-80
2021/03/14 09:34:43;;;;;;;1.70;1.02;;;7.00;61.60;;;;;;5044440;28;20183;-80
2021/03/14 09:37:11;;;;;;;1.20;1.02;;;7.10;63.30;;;;;;5061845;28;20230;-79
2021/03/14 09:39:40;;;;;;;2.08;1.30;;;7.40;59.70;;;;;;5063942;28;20209;-79
2021/03/14 09:42:07;;;;;;;4.95;1.17;;;7.50;57.50;;;;;;5063215;28;20698;-80
2021/03/14 09:44:33;;;;;;;3.17;1.10;;;7.30;57.30;;;;;;5065071;28;20214;-80
2021/03/14 09:47:01;;;;;;;1.63;1.20;;;7.10;57.60;;;;;;5049663;28;20733;-78
2021/03/14 09:49:27;;;;;;;2.75;1.20;;;7.10;58.80;;;;;;5053835;28;20206;-80
2021/03/14 09:51:55;;;;;;;2.78;1.30;;;7.10;58.70;;;;;;5068592;28;20206;-80
2021/03/14 09:54:23;;;;;;;3.80;1.40;;;7.30;58.70;;;;;;5063525;28;20438;-81
2021/03/14 09:56:52;;;;;;;2.78;1.30;;;7.40;57.40;;;;;;5059179;28;20230;-80
2021/03/14 09:59:26;;;;;;;2.33;1.50;;;7.70;57.70;;;;;;5067063;28;20223;-81
2021/03/14 10:01:55;;;;;;;3.65;1.30;;;7.80;56.80;;;;;;5053463;28;20202;-80
2021/03/14 10:04:22;;;;;;;4.53;1.80;;;7.90;54.80;;;;;;5051704;28;20210;-78
2021/03/14 10:06:49;;;;;;;2.97;1.10;;;7.90;55.30;;;;;;5047669;28;20240;-81
2021/03/14 10:09:24;;;;;;;2.17;1.35;;;7.90;53.90;;;;;;5046169;28;20231;-83
2021/03/14 10:11:52;;;;;;;6.05;1.25;;;8.10;55.00;;;;;;5055003;28;20206;-80
2021/03/14 10:14:20;;;;;;;3.33;1.00;;;8.50;53.70;;;;;;5062024;28;20207;-82
2021/03/14 10:16:48;;;;;;;1.17;1.08;;;8.70;52.30;;;;;;5060954;28;20353;-80
2021/03/14 10:19:15;;;;;;;2.63;1.25;;;8.60;50.90;;;;;;5058845;28;20222;-81
2021/03/14 10:21:46;;;;;;;2.83;1.42;;;8.60;49.00;;;;;;5055633;28;20202;-79
2021/03/14 10:24:18;;;;;;;1.40;0.95;;;8.40;49.90;;;;;;5054573;28;20294;-80
2021/03/14 10:26:54;;;;;;;4.53;1.27;;;8.40;48.90;;;;;;5058744;28;20230;-81
2021/03/14 10:29:21;;;;;;;2.75;1.23;;;8.50;48.90;;;;;;5044102;28;20207;-80
2021/03/14 10:31:49;;;;;;;1.65;1.42;;;8.70;49.10;;;;;;5038428;28;20230;-78
2021/03/14 10:34:19;;;;;;;3.03;1.38;;;8.50;48.90;;;;;;5059456;28;20210;-80
2021/03/14 10:36:46;;;;;;;3.33;1.25;;;8.40;48.90;;;;;;5062225;28;20228;-82
2021/03/14 10:39:13;;;;;;;3.22;1.15;;;8.40;48.90;;;;;;5050844;28;20246;-80
2021/03/14 10:41:42;;;;;;;3.15;1.23;;;8.40;49.80;;;;;;5053002;28;20204;-80
2021/03/14 10:44:11;;;;;;;2.88;1.50;;;8.40;48.80;;;;;;5056454;28;20199;-78
2021/03/14 10:46:39;;;;;;;2.67;1.20;;;8.30;48.30;;;;;;5058593;28;20215;-80
2021/03/14 10:49:07;;;;;;;1.60;0.95;;;8.10;48.60;;;;;;5057774;28;20199;-78
2021/03/14 10:51:35;;;;;;;5.50;1.20;;;7.80;48.60;;;;;;5064015;28;20190;-80
2021/03/14 10:54:06;;;;;;;1.90;1.30;;;7.50;51.30;;;;;;5070139;28;20221;-79
2021/03/14 10:56:34;;;;;;;1.92;1.10;;;7.40;53.70;;;;;;5075916;28;20400;-81
2021/03/14 10:59:01;;;;;;;2.75;1.35;;;7.40;55.10;;;;;;5067373;28;20233;-80
2021/03/14 11:01:35;;;;;;;2.00;1.20;;;7.10;56.40;;;;;;5072328;28;20245;-80
2021/03/14 11:04:04;;;;;;;2.47;1.02;;;6.80;56.90;;;;;;5075298;28;20241;-81
2021/03/14 11:06:32;;;;;;;1.90;1.05;;;6.60;56.70;;;;;;5073923;28;20215;-83
2021/03/14 11:09:02;;;;;;;2.47;1.20;;;6.50;57.70;;;;;;5070358;28;20202;-82
2021/03/14 11:11:40;;;;;;;1.85;1.25;;;6.50;59.80;;;;;;5061346;28;20225;-78
2021/03/14 11:14:31;;;;;;;2.05;1.17;;;6.30;58.90;;;;;;5044170;28;20211;-80
2021/03/14 11:17:19;;;;;;;4.30;1.67;;;6.20;60.10;;;;;;5053140;28;20282;-78
2021/03/14 11:19:50;;;;;;;1.77;1.10;;;6.10;60.80;;;;;;5052131;28;20188;-79
2021/03/14 11:22:19;;;;;;;4.25;1.50;;;6.00;62.70;;;;;;5051848;28;20227;-81
2021/03/14 11:24:46;;;;;;;2.45;1.17;;;6.00;64.30;;;;;;5054353;28;20205;-80
2021/03/14 11:27:14;;;;;;;4.75;1.50;;;5.90;65.00;;;;;;5065820;28;20301;-80
2021/03/14 11:29:41;;;;;;;7.35;1.55;;;5.90;65.10;;;;;;5068274;28;20234;-82
2021/03/14 11:32:11;;;;;;;2.40;1.50;;;5.90;66.90;;;;;;5068748;28;20210;-81
2021/03/14 11:34:41;;;;;;;2.30;1.40;;;6.00;67.10;;;;;;5067389;28;20210;-80
2021/03/14 11:37:13;;;;;;;6.07;1.23;;;6.00;66.40;;;;;;5064897;28;20230;-80
2021/03/14 11:39:40;;;;;;;2.28;1.35;;;6.00;66.70;;;;;;5060434;28;20332;-79
2021/03/14 11:42:11;;;;;;;7.25;1.70;;;6.10;67.00;;;;;;5062133;28;20240;-80
2021/03/14 11:44:38;;;;;;;4.45;1.30;;;6.20;66.20;;;;;;5057798;28;20578;-80
2021/03/14 11:47:05;;;;;;;3.80;1.50;;;6.20;65.40;;;;;;5062457;28;20269;-80
2021/03/14 11:49:32;;;;;;;3.25;2.08;;;6.30;66.70;;;;;;5061496;28;20199;-78
2021/03/14 11:51:59;;;;;;;2.85;1.05;;;6.40;67.30;;;;;;5068542;28;20207;-77
2021/03/14 11:54:25;;;;;;;2.15;1.40;;;6.50;65.90;;;;;;5058707;28;20203;-80
2021/03/14 11:56:52;;;;;;;5.25;1.50;;;6.50;66.30;;;;;;5044907;28;20279;-77
2021/03/14 11:59:20;;;;;;;2.85;1.58;;;6.60;65.60;;;;;;5040294;28;20262;-78
2021/03/14 12:01:49;;;;;;;2.17;1.20;;;6.70;65.70;;;;;;5038736;28;20211;-77
2021/03/14 12:04:16;;;;;;;3.67;1.70;;;6.80;64.70;;;;;;5055611;28;20199;-78
2021/03/14 12:06:43;;;;;;;3.17;1.83;;;7.00;64.90;;;;;;5074535;28;20223;-80
2021/03/14 12:09:10;;;;;;;2.30;1.65;;;7.10;63.60;;;;;;5063471;28;20199;-79
2021/03/14 12:11:37;;;;;;;3.80;1.15;;;7.20;62.90;;;;;;5046120;28;20219;-78
2021/03/14 12:14:03;;;;;;;4.40;1.30;;;7.30;62.10;;;;;;5040130;28;20222;-80
2021/03/14 12:16:30;;;;;;;3.72;1.55;;;7.20;61.80;;;;;;5038942;28;20541;-78
2021/03/14 12:18:57;;;;;;;3.47;1.60;;;7.10;62.60;;;;;;5045337;28;20285;-79
2021/03/14 12:21:23;;;;;;;3.90;1.40;;;6.90;62.70;;;;;;5063380;28;20214;-80
2021/03/14 12:23:49;;;;;;;6.05;1.48;;;6.70;63.70;;;;;;5061614;28;20211;-79
2021/03/14 12:26:17;;;;;;;2.30;1.70;;;6.50;65.80;;;;;;5046522;28;20254;-78
2021/03/14 12:28:43;;;;;;;1.65;1.38;;;6.30;67.40;;;;;;5051228;28;20305;-78
2021/03/14 12:31:09;;;;;;;1.77;1.45;;;6.20;68.10;;;;;;5052600;28;20191;-79
2021/03/14 12:33:36;;;;;;;3.05;1.73;;;6.20;70.60;;;;;;5058001;28;20664;-78
2021/03/14 12:36:02;;;;;;;2.35;1.70;;;6.30;71.10;;;;;;5039505;28;20243;-78
2021/03/14 12:38:29;;;;;;;3.85;1.48;;;6.30;70.30;;;;;;5053196;28;20341;-78
2021/03/14 12:40:55;;;;;;;2.55;1.20;;;6.30;70.40;;;;;;5060301;28;20217;-79
2021/03/14 12:43:24;;;;;;;1.45;1.10;;;6.30;70.10;;;;;;5060132;28;20207;-77
2021/03/14 12:45:52;;;;;;;1.75;1.08;;;6.30;70.60;;;;;;5046882;28;20203;-77
2021/03/14 12:48:19;;;;;;;1.00;0.90;;;6.40;71.40;;;;;;5041304;28;20207;-78
2021/03/14 12:50:45;;;;;;;1.35;1.00;;;6.30;71.60;;;;;;5036656;28;20234;-78
2021/03/14 12:53:12;;;;;;;1.40;0.80;;;6.20;71.20;;;;;;5040184;28;20254;-79
2021/03/14 12:55:39;;;;;;;2.17;1.20;;;6.00;71.70;;;;;;5041538;28;20207;-78
2021/03/14 12:58:05;;;;;;;4.20;1.65;;;5.90;73.80;;;;;;5039083;28;20223;-78
2021/03/14 13:00:32;;;;;;;3.25;1.25;;;5.80;74.10;;;;;;5035417;28;20261;-79
2021/03/14 13:02:59;;;;;;;2.88;1.58;;;5.80;77.00;;;;;;5035513;28;20219;-77
2021/03/14 13:05:26;;;;;;;1.77;1.35;;;5.80;78.60;;;;;;5035162;28;20682;-79
2021/03/14 13:07:54;;;;;;;3.00;1.35;;;5.80;78.60;;;;;;5036371;28;20239;-78